Time;durP1;ratioP1;P1;durP2;ratioP2;P2;SDS_P1;SDS_P2;PMS_P1;PMS_P2;Temp;Humidity;BMP_temperature;BMP_pressure;BME280_temperature;BME280_humidity;BME280_pressure;Samples;Min_cycle;Max_cycle;Signal;HPM_P1;HPM_P2
2021/05/18 00:01:44;;;;;;;0.10;0.10;;;;;;;;;;5125440;27;20204;-72
2021/05/18 00:04:10;;;;;;;0.10;0.10;;;;;;;;;;5125577;28;20258;-72
2021/05/18 00:06:36;;;;;;;0.10;0.10;;;;;;;;;;5125645;28;20227;-72
2021/05/18 00:11:46;;;;;;;0.10;0.10;;;;;;;;;;5123844;28;20507;-71
2021/05/18 00:14:13;;;;;;;0.10;0.10;;;;;;;;;;5125191;28;20212;-71
2021/05/18 00:16:39;;;;;;;0.10;0.10;;;;;;;;;;5124213;27;20221;-71
2021/05/18 00:19:05;;;;;;;0.10;0.10;;;;;;;;;;5125179;28;20206;-72
2021/05/18 00:21:32;;;;;;;0.10;0.10;;;;;;;;;;5128516;27;20220;-72
2021/05/18 00:23:57;;;;;;;0.10;0.10;;;;;;;;;;5136496;27;20272;-71
2021/05/18 00:26:23;;;;;;;0.10;0.10;;;;;;;;;;5125201;28;20390;-71
2021/05/18 00:28:49;;;;;;;0.10;0.10;;;;;;;;;;5125271;28;20295;-72
2021/05/18 00:31:15;;;;;;;0.10;0.10;;;;;;;;;;5125128;28;20203;-71
2021/05/18 00:33:42;;;;;;;0.10;0.10;;;;;;;;;;5125102;28;20282;-74
2021/05/18 00:36:08;;;;;;;0.10;0.10;;;;;;;;;;5124842;28;20263;-72
2021/05/18 00:38:35;;;;;;;0.10;0.10;;;;;;;;;;5125200;28;20535;-70
2021/05/18 00:41:01;;;;;;;0.10;0.10;;;;;;;;;;5123477;28;20214;-71
2021/05/18 00:43:27;;;;;;;0.10;0.10;;;;;;;;;;5123182;28;20543;-71
2021/05/18 00:45:53;;;;;;;0.10;0.10;;;;;;;;;;5124875;28;20203;-71
2021/05/18 00:48:20;;;;;;;0.10;0.10;;;;;;;;;;5124932;27;20210;-72
2021/05/18 00:50:46;;;;;;;0.10;0.10;;;;;;;;;;5124424;28;20497;-71
2021/05/18 00:53:12;;;;;;;0.10;0.10;;;;;;;;;;5124522;28;20198;-71
2021/05/18 00:55:41;;;;;;;0.10;0.10;;;;;;;;;;5124862;28;20233;-72
2021/05/18 01:00:52;;;;;;;0.10;0.10;;;;;;;;;;5123504;28;20254;-71
2021/05/18 01:03:18;;;;;;;0.10;0.10;;;;;;;;;;5120327;28;20294;-71
2021/05/18 01:08:27;;;;;;;0.10;0.10;;;;;;;;;;5112477;28;20200;-71
2021/05/18 01:10:54;;;;;;;0.10;0.10;;;;;;;;;;5123280;27;20236;-71
2021/05/18 01:13:20;;;;;;;0.10;0.10;;;;;;;;;;5125266;28;20199;-71
2021/05/18 01:15:45;;;;;;;0.10;0.10;;;;;;;;;;5124350;28;20216;-71
2021/05/18 01:18:11;;;;;;;0.10;0.10;;;;;;;;;;5124245;28;20199;-71
2021/05/18 01:20:38;;;;;;;0.10;0.10;;;;;;;;;;5124313;28;20302;-70
2021/05/18 01:23:04;;;;;;;0.10;0.10;;;;;;;;;;5124129;28;20232;-70
2021/05/18 01:25:30;;;;;;;0.10;0.10;;;;;;;;;;5124486;28;20381;-72
2021/05/18 01:27:56;;;;;;;0.10;0.10;;;;;;;;;;5125792;28;20201;-71
2021/05/18 01:30:22;;;;;;;0.10;0.10;;;;;;;;;;5125856;28;20243;-70
2021/05/18 01:32:48;;;;;;;0.10;0.10;;;;;;;;;;5127633;28;20293;-72
2021/05/18 01:35:14;;;;;;;0.10;0.10;;;;;;;;;;5120855;28;20201;-71
2021/05/18 01:37:41;;;;;;;0.10;0.10;;;;;;;;;;5127632;28;20223;-70
2021/05/18 01:40:27;;;;;;;0.10;0.10;;;;;;;;;;5124360;28;20490;-70
2021/05/18 01:42:54;;;;;;;0.10;0.10;;;;;;;;;;5124121;28;20214;-70
2021/05/18 01:45:20;;;;;;;0.10;0.10;;;;;;;;;;5122778;28;20238;-72
2021/05/18 01:47:50;;;;;;;0.10;0.10;;;;;;;;;;5123708;28;20224;-71
2021/05/18 01:50:16;;;;;;;0.10;0.10;;;;;;;;;;5123925;28;20208;-71
2021/05/18 01:52:43;;;;;;;0.10;0.10;;;;;;;;;;5127831;28;20202;-71
2021/05/18 01:55:10;;;;;;;0.10;0.10;;;;;;;;;;5131503;28;20213;-71
2021/05/18 01:57:36;;;;;;;0.10;0.10;;;;;;;;;;5129521;27;20204;-70
2021/05/18 02:00:03;;;;;;;0.10;0.10;;;;;;;;;;5131059;28;20207;-71
2021/05/18 02:02:29;;;;;;;0.10;0.10;;;;;;;;;;5130761;27;20436;-70
2021/05/18 02:04:57;;;;;;;0.10;0.10;;;;;;;;;;5143867;27;20214;-71
2021/05/18 02:07:25;;;;;;;0.10;0.10;;;;;;;;;;5143694;27;20492;-72
2021/05/18 02:09:52;;;;;;;0.10;0.10;;;;;;;;;;5131058;28;20270;-72
2021/05/18 02:12:18;;;;;;;0.10;0.10;;;;;;;;;;5130873;28;20205;-70
2021/05/18 02:14:47;;;;;;;0.10;0.10;;;;;;;;;;5128951;27;20243;-71
2021/05/18 02:17:17;;;;;;;0.10;0.10;;;;;;;;;;5127414;28;20513;-71
2021/05/18 02:19:53;;;;;;;0.10;0.10;;;;;;;;;;5129963;28;20201;-71
2021/05/18 02:25:04;;;;;;;0.10;0.10;;;;;;;;;;5125615;28;20207;-72
2021/05/18 02:27:31;;;;;;;0.10;0.10;;;;;;;;;;5125625;28;20211;-73
2021/05/18 02:29:57;;;;;;;0.10;0.10;;;;;;;;;;5132372;27;20229;-72
2021/05/18 02:32:23;;;;;;;0.10;0.10;;;;;;;;;;5132018;28;20509;-71
2021/05/18 02:34:49;;;;;;;0.10;0.10;;;;;;;;;;5131918;27;20203;-71
2021/05/18 02:37:15;;;;;;;0.10;0.10;;;;;;;;;;5118749;27;20209;-71
2021/05/18 02:39:41;;;;;;;0.10;0.10;;;;;;;;;;5130976;28;20209;-71
2021/05/18 02:42:08;;;;;;;0.10;0.10;;;;;;;;;;5131816;27;20317;-71
2021/05/18 02:44:39;;;;;;;0.10;0.10;;;;;;;;;;5129575;27;20202;-71
2021/05/18 02:49:49;;;;;;;0.10;0.10;;;;;;;;;;5130373;28;20505;-72
2021/05/18 02:52:14;;;;;;;0.10;0.10;;;;;;;;;;5130348;27;20209;-71
2021/05/18 02:54:41;;;;;;;0.10;0.10;;;;;;;;;;5130599;27;20212;-72
2021/05/18 02:57:10;;;;;;;0.10;0.10;;;;;;;;;;5129905;27;20210;-70
2021/05/18 02:59:36;;;;;;;0.10;0.10;;;;;;;;;;5127110;28;20206;-70
2021/05/18 03:02:02;;;;;;;0.10;0.10;;;;;;;;;;5130275;28;20384;-72
2021/05/18 03:04:28;;;;;;;0.10;0.10;;;;;;;;;;5126957;28;20214;-70
2021/05/18 03:06:54;;;;;;;0.10;0.10;;;;;;;;;;5127364;28;20225;-73
2021/05/18 03:09:21;;;;;;;0.10;0.10;;;;;;;;;;5127242;28;20194;-70
2021/05/18 03:11:47;;;;;;;0.10;0.10;;;;;;;;;;5127208;28;20202;-70
2021/05/18 03:14:15;;;;;;;0.10;0.10;;;;;;;;;;5115127;28;20210;-70
2021/05/18 03:16:41;;;;;;;0.10;0.10;;;;;;;;;;5126703;28;20228;-72
2021/05/18 03:19:09;;;;;;;0.10;0.10;;;;;;;;;;5117271;28;20202;-71
2021/05/18 03:21:35;;;;;;;0.10;0.10;;;;;;;;;;5126413;28;20278;-71
2021/05/18 03:24:00;;;;;;;0.10;0.10;;;;;;;;;;5126450;28;20524;-71
2021/05/18 03:26:27;;;;;;;0.10;0.10;;;;;;;;;;5127332;28;20201;-71
2021/05/18 03:28:57;;;;;;;0.10;0.10;;;;;;;;;;5127725;28;20207;-71
2021/05/18 03:34:31;;;;;;;0.10;0.10;;;;;;;;;;5117584;28;20265;-72
2021/05/18 03:36:58;;;;;;;0.10;0.10;;;;;;;;;;5124691;28;20214;-72
2021/05/18 03:39:24;;;;;;;0.10;0.10;;;;;;;;;;5126735;28;20230;-70
2021/05/18 03:41:55;;;;;;;0.10;0.10;;;;;;;;;;5126787;28;20232;-70
2021/05/18 03:44:27;;;;;;;0.10;0.10;;;;;;;;;;5126122;28;20457;-70
2021/05/18 03:52:24;;;;;;;0.10;0.10;;;;;;;;;;5126437;28;20204;-71
2021/05/18 03:54:59;;;;;;;0.20;0.20;;;;;;;;;;5125519;28;20476;-71
2021/05/18 04:03:00;;;;;;;0.10;0.10;;;;;;;;;;5113902;28;20250;-71
2021/05/18 04:11:28;;;;;;;0.10;0.10;;;;;;;;;;5124801;28;20208;-70
2021/05/18 04:16:52;;;;;;;0.10;0.10;;;;;;;;;;5118057;28;20197;-71
2021/05/18 04:19:22;;;;;;;0.10;0.10;;;;;;;;;;5126001;27;20200;-72
2021/05/18 04:21:57;;;;;;;0.10;0.10;;;;;;;;;;5125722;28;20413;-71
2021/05/18 04:24:42;;;;;;;0.10;0.10;;;;;;;;;;5133300;27;20279;-71
2021/05/18 04:41:14;;;;;;;0.10;0.10;;;;;;;;;;5131254;27;20219;-71
2021/05/18 04:51:56;;;;;;;0.10;0.10;;;;;;;;;;5133798;27;20237;-71
2021/05/18 04:59:51;;;;;;;0.10;0.10;;;;;;;;;;5132968;27;20503;-71
2021/05/18 05:02:46;;;;;;;0.10;0.10;;;;;;;;;;5137224;27;20212;-71
2021/05/18 05:08:00;;;;;;;0.10;0.10;;;;;;;;;;5133744;27;20230;-71
2021/05/18 05:12:19;;;;;;;0.10;0.10;;;;;;;;;;5138962;27;20194;-71
2021/05/18 05:15:59;;;;;;;0.10;0.10;;;;;;;;;;5132120;27;20214;-71
2021/05/18 05:18:24;;;;;;;0.10;0.10;;;;;;;;;;5132616;27;20210;-70
2021/05/18 05:20:50;;;;;;;0.10;0.10;;;;;;;;;;5127811;27;20228;-71
2021/05/18 05:23:17;;;;;;;0.10;0.10;;;;;;;;;;5132322;27;20229;-71
2021/05/18 05:25:42;;;;;;;0.10;0.10;;;;;;;;;;5124925;27;20203;-71
2021/05/18 05:28:08;;;;;;;0.10;0.10;;;;;;;;;;5123679;28;20200;-72
2021/05/18 05:30:34;;;;;;;0.10;0.10;;;;;;;;;;5122387;28;20393;-72
2021/05/18 05:33:00;;;;;;;0.10;0.10;;;;;;;;;;5124169;28;20438;-71
2021/05/18 05:35:25;;;;;;;0.10;0.10;;;;;;;;;;5138896;27;20541;-71
2021/05/18 05:37:52;;;;;;;0.10;0.10;;;;;;;;;;5123943;28;20210;-71
2021/05/18 05:40:19;;;;;;;0.10;0.10;;;;;;;;;;5134752;27;20509;-72
2021/05/18 05:42:44;;;;;;;0.10;0.10;;;;;;;;;;5123854;28;20388;-71
2021/05/18 05:45:11;;;;;;;0.10;0.10;;;;;;;;;;5123793;28;20220;-71
2021/05/18 05:47:36;;;;;;;0.10;0.10;;;;;;;;;;5132573;27;20210;-71
2021/05/18 05:50:03;;;;;;;1.63;1.57;;;;;;;;;;5123532;28;20202;-72
2021/05/18 05:52:29;;;;;;;0.10;0.10;;;;;;;;;;5123547;28;20206;-71
2021/05/18 05:54:55;;;;;;;0.10;0.10;;;;;;;;;;5123559;28;20517;-71
2021/05/18 05:57:22;;;;;;;0.10;0.10;;;;;;;;;;5123501;28;20208;-72
2021/05/18 05:59:47;;;;;;;0.10;0.10;;;;;;;;;;5123443;28;20567;-71
2021/05/18 06:02:13;;;;;;;0.10;0.10;;;;;;;;;;5123401;28;20198;-71
2021/05/18 06:04:39;;;;;;;0.10;0.10;;;;;;;;;;5115987;28;20213;-72
2021/05/18 06:07:05;;;;;;;0.10;0.10;;;;;;;;;;5123888;28;20216;-71
2021/05/18 06:09:31;;;;;;;0.10;0.10;;;;;;;;;;5123789;28;20205;-71
2021/05/18 06:12:01;;;;;;;0.10;0.10;;;;;;;;;;5132768;28;20212;-71
2021/05/18 06:14:38;;;;;;;0.10;0.10;;;;;;;;;;5128931;27;20261;-71
2021/05/18 06:17:36;;;;;;;0.10;0.10;;;;;;;;;;5116402;28;20198;-72
2021/05/18 06:34:10;;;;;;;0.10;0.10;;;;;;;;;;5122512;28;20537;-70
2021/05/18 06:37:01;;;;;;;0.10;0.10;;;;;;;;;;5113694;28;20395;-71
2021/05/18 06:42:29;;;;;;;0.10;0.10;;;;;;;;;;5127604;28;20250;-71
2021/05/18 06:47:47;;;;;;;0.10;0.10;;;;;;;;;;5114905;28;20264;-71
2021/05/18 06:50:28;;;;;;;0.10;0.10;;;;;;;;;;5121366;28;20221;-71
2021/05/18 06:52:55;;;;;;;0.10;0.10;;;;;;;;;;5129748;27;20418;-71
2021/05/18 06:55:24;;;;;;;0.10;0.10;;;;;;;;;;5133783;27;20194;-71
2021/05/18 06:57:54;;;;;;;0.10;0.10;;;;;;;;;;5126792;28;20243;-71
2021/05/18 07:00:20;;;;;;;0.10;0.10;;;;;;;;;;5126767;28;20245;-73
2021/05/18 07:02:47;;;;;;;0.10;0.10;;;;;;;;;;5120325;28;20214;-70
2021/05/18 07:05:17;;;;;;;0.10;0.10;;;;;;;;;;5121041;28;20205;-71
2021/05/18 07:07:44;;;;;;;0.10;0.10;;;;;;;;;;5121045;28;20506;-70
2021/05/18 07:10:10;;;;;;;0.10;0.10;;;;;;;;;;5120887;28;20209;-70
2021/05/18 07:12:37;;;;;;;0.10;0.10;;;;;;;;;;5121059;28;20211;-72
2021/05/18 07:15:03;;;;;;;1.70;1.60;;;;;;;;;;5126472;28;20340;-72
2021/05/18 07:17:29;;;;;;;0.10;0.10;;;;;;;;;;5130979;27;20497;-72
2021/05/18 07:19:55;;;;;;;0.10;0.10;;;;;;;;;;5129526;27;20218;-72
2021/05/18 07:22:21;;;;;;;0.10;0.10;;;;;;;;;;5134899;27;20225;-71
2021/05/18 07:24:47;;;;;;;0.10;0.10;;;;;;;;;;5126057;27;20228;-70
2021/05/18 07:27:13;;;;;;;0.10;0.10;;;;;;;;;;5136605;27;20208;-69
2021/05/18 07:29:39;;;;;;;0.10;0.10;;;;;;;;;;5131988;27;20382;-69
2021/05/18 07:32:04;;;;;;;0.10;0.10;;;;;;;;;;5126005;28;20278;-71
2021/05/18 07:34:30;;;;;;;0.10;0.10;;;;;;;;;;5127116;27;20204;-72
2021/05/18 07:36:56;;;;;;;0.10;0.10;;;;;;;;;;5137598;27;20220;-73
2021/05/18 07:39:24;;;;;;;0.10;0.10;;;;;;;;;;5127819;27;20277;-72
2021/05/18 07:41:49;;;;;;;0.10;0.10;;;;;;;;;;5132810;27;20213;-73
2021/05/18 07:44:15;;;;;;;0.10;0.10;;;;;;;;;;5120019;27;20451;-72
2021/05/18 07:46:42;;;;;;;0.10;0.10;;;;;;;;;;5122213;28;20195;-71
2021/05/18 07:49:15;;;;;;;0.10;0.10;;;;;;;;;;5126032;28;20329;-71
2021/05/18 07:51:55;;;;;;;0.10;0.10;;;;;;;;;;5125631;28;20370;-72
2021/05/18 07:59:52;;;;;;;0.10;0.10;;;;;;;;;;5131228;27;20198;-72
2021/05/18 08:02:23;;;;;;;0.10;0.10;;;;;;;;;;5131608;27;20301;-73
2021/05/18 08:07:34;;;;;;;0.10;0.10;;;;;;;;;;5128303;27;20233;-71
2021/05/18 08:10:07;;;;;;;0.10;0.10;;;;;;;;;;5114541;28;20213;-72
2021/05/18 08:12:34;;;;;;;0.10;0.10;;;;;;;;;;5125800;27;20218;-72
2021/05/18 08:15:12;;;;;;;0.10;0.10;;;;;;;;;;5125442;28;20212;-73
2021/05/18 08:17:41;;;;;;;0.10;0.10;;;;;;;;;;5129800;27;20439;-75
2021/05/18 08:48:33;;;;;;;0.10;0.10;;;;;;;;;;5132719;27;20211;-71
2021/05/18 09:47:52;;;;;;;0.10;0.10;;;;;;;;;;5112520;28;20347;-71
2021/05/18 09:50:49;;;;;;;0.10;0.10;;;;;;;;;;5116896;27;20210;-71
2021/05/18 10:34:26;;;;;;;0.10;0.10;;;;;;;;;;5127626;27;20196;-72
2021/05/18 10:36:53;;;;;;;0.10;0.10;;;;;;;;;;5115820;28;20241;-72
2021/05/18 10:39:22;;;;;;;0.10;0.10;;;;;;;;;;5123082;27;20216;-74
2021/05/18 10:41:49;;;;;;;0.10;0.10;;;;;;;;;;5121928;27;20421;-75
2021/05/18 10:44:15;;;;;;;0.10;0.10;;;;;;;;;;5114211;28;20240;-72
2021/05/18 10:46:49;;;;;;;0.00;0.00;;;;;;;;;;5121238;27;20526;-73
2021/05/18 10:49:18;;;;;;;0.10;0.10;;;;;;;;;;5117101;28;20539;-71
2021/05/18 10:51:54;;;;;;;0.10;0.10;;;;;;;;;;5115912;28;20241;-71
2021/05/18 10:54:22;;;;;;;0.10;0.10;;;;;;;;;;5117295;27;20239;-72
2021/05/18 10:56:59;;;;;;;0.10;0.10;;;;;;;;;;5115356;28;20410;-72
2021/05/18 10:59:25;;;;;;;0.10;0.10;;;;;;;;;;5117231;27;20228;-72
2021/05/18 11:01:57;;;;;;;0.10;0.10;;;;;;;;;;5120644;27;20204;-72
2021/05/18 11:04:23;;;;;;;0.10;0.10;;;;;;;;;;5121810;27;20369;-72
2021/05/18 11:06:52;;;;;;;0.10;0.10;;;;;;;;;;5127196;27;20250;-74
2021/05/18 11:09:18;;;;;;;0.10;0.10;;;;;;;;;;5118646;27;20224;-73
2021/05/18 11:11:44;;;;;;;0.10;0.10;;;;;;;;;;5121419;27;20232;-72
2021/05/18 11:14:10;;;;;;;0.10;0.10;;;;;;;;;;5116594;27;20272;-74
2021/05/18 11:16:36;;;;;;;0.10;0.10;;;;;;;;;;5129837;27;20218;-74
2021/05/18 11:19:08;;;;;;;0.10;0.10;;;;;;;;;;5117316;27;20284;-71
2021/05/18 11:21:37;;;;;;;0.10;0.10;;;;;;;;;;5121947;27;20246;-74
2021/05/18 11:24:12;;;;;;;0.10;0.10;;;;;;;;;;5122403;27;20413;-74
2021/05/18 11:26:48;;;;;;;0.10;0.10;;;;;;;;;;5123541;27;20228;-71
2021/05/18 11:29:14;;;;;;;0.10;0.10;;;;;;;;;;5116199;28;20242;-72
2021/05/18 11:31:41;;;;;;;0.10;0.10;;;;;;;;;;5117221;27;20233;-71
2021/05/18 11:34:07;;;;;;;0.10;0.10;;;;;;;;;;5120991;27;20208;-73
2021/05/18 11:36:35;;;;;;;0.10;0.10;;;;;;;;;;5120652;28;20220;-73
2021/05/18 11:39:06;;;;;;;0.10;0.10;;;;;;;;;;5119671;28;20202;-73
2021/05/18 11:41:34;;;;;;;0.10;0.10;;;;;;;;;;5115208;27;20346;-71
2021/05/18 11:44:00;;;;;;;0.10;0.10;;;;;;;;;;5120415;28;20295;-75
2021/05/18 11:46:28;;;;;;;0.10;0.10;;;;;;;;;;5117976;28;20229;-72
2021/05/18 11:48:55;;;;;;;0.10;0.10;;;;;;;;;;5125090;27;20251;-71
2021/05/18 11:51:21;;;;;;;0.10;0.10;;;;;;;;;;5119021;27;20205;-71
2021/05/18 11:53:47;;;;;;;0.10;0.10;;;;;;;;;;5119753;27;20219;-73
2021/05/18 11:56:21;;;;;;;0.07;0.07;;;;;;;;;;5116361;28;20208;-73
2021/05/18 11:58:47;;;;;;;0.00;0.00;;;;;;;;;;5116564;27;20340;-71
2021/05/18 12:01:13;;;;;;;0.10;0.10;;;;;;;;;;5123627;27;20212;-74
2021/05/18 12:03:40;;;;;;;0.00;0.00;;;;;;;;;;5113588;27;20227;-74
2021/05/18 12:06:06;;;;;;;0.00;0.00;;;;;;;;;;5115934;27;20232;-72
2021/05/18 12:08:33;;;;;;;0.10;0.10;;;;;;;;;;5116848;28;20213;-73
2021/05/18 12:11:13;;;;;;;0.10;0.10;;;;;;;;;;5117521;27;20385;-72
2021/05/18 12:13:39;;;;;;;0.03;0.03;;;;;;;;;;5120053;27;20207;-72
2021/05/18 12:16:05;;;;;;;0.03;0.03;;;;;;;;;;5119324;27;20430;-72
2021/05/18 12:18:32;;;;;;;0.03;0.03;;;;;;;;;;5120367;27;20208;-73
2021/05/18 12:21:03;;;;;;;0.10;0.10;;;;;;;;;;5119518;27;20479;-70
2021/05/18 12:23:29;;;;;;;0.10;0.10;;;;;;;;;;5116573;28;20240;-73
2021/05/18 12:26:08;;;;;;;0.10;0.10;;;;;;;;;;5122519;28;20427;-71
2021/05/18 12:28:34;;;;;;;0.00;0.00;;;;;;;;;;5115399;28;20197;-71
2021/05/18 12:31:00;;;;;;;0.10;0.10;;;;;;;;;;5119936;28;20519;-72
2021/05/18 12:33:36;;;;;;;0.03;0.03;;;;;;;;;;5114989;28;20490;-72
2021/05/18 12:36:04;;;;;;;0.10;0.10;;;;;;;;;;5119315;28;20238;-74
2021/05/18 12:38:30;;;;;;;0.10;0.10;;;;;;;;;;5110895;28;20240;-74
2021/05/18 12:41:01;;;;;;;0.07;0.07;;;;;;;;;;5119296;28;20486;-72
2021/05/18 12:43:37;;;;;;;0.10;0.10;;;;;;;;;;5120214;27;20239;-72
2021/05/18 12:46:06;;;;;;;0.03;0.03;;;;;;;;;;5108177;28;20237;-73
2021/05/18 12:48:34;;;;;;;0.10;0.10;;;;;;;;;;5120848;28;20216;-73
2021/05/18 12:51:00;;;;;;;0.10;0.10;;;;;;;;;;5116697;28;20282;-73
2021/05/18 12:53:28;;;;;;;0.10;0.10;;;;;;;;;;5118865;28;20511;-73
2021/05/18 12:55:54;;;;;;;0.10;0.10;;;;;;;;;;5120172;28;20556;-74
2021/05/18 12:58:27;;;;;;;0.10;0.10;;;;;;;;;;5121095;28;20489;-74
2021/05/18 13:01:04;;;;;;;0.10;0.10;;;;;;;;;;5113226;28;20228;-72
2021/05/18 13:03:30;;;;;;;0.10;0.10;;;;;;;;;;5113970;28;20218;-72
2021/05/18 13:05:56;;;;;;;0.10;0.10;;;;;;;;;;5117090;28;20200;-73
2021/05/18 13:08:22;;;;;;;0.03;0.03;;;;;;;;;;5121398;28;20211;-72
2021/05/18 13:10:53;;;;;;;0.10;0.10;;;;;;;;;;5116501;28;20246;-71
2021/05/18 13:13:19;;;;;;;0.10;0.10;;;;;;;;;;5113706;28;20520;-71
2021/05/18 13:15:45;;;;;;;0.10;0.10;;;;;;;;;;5118702;28;20228;-71
2021/05/18 13:18:12;;;;;;;0.10;0.10;;;;;;;;;;5118151;28;20315;-70
2021/05/18 13:20:46;;;;;;;0.10;0.10;;;;;;;;;;5119607;28;20222;-71
2021/05/18 13:23:18;;;;;;;0.10;0.10;;;;;;;;;;5117103;27;20197;-72
2021/05/18 13:28:29;;;;;;;0.10;0.10;;;;;;;;;;5117691;28;20208;-73
2021/05/18 13:30:55;;;;;;;0.10;0.10;;;;;;;;;;5111901;28;20211;-72
2021/05/18 13:33:21;;;;;;;0.10;0.10;;;;;;;;;;5117630;28;20229;-73
2021/05/18 13:35:47;;;;;;;0.10;0.10;;;;;;;;;;5115768;28;20549;-73
2021/05/18 13:38:12;;;;;;;0.00;0.00;;;;;;;;;;5119700;27;20209;-73
2021/05/18 13:40:38;;;;;;;0.10;0.10;;;;;;;;;;5119186;27;20229;-72
2021/05/18 13:43:05;;;;;;;0.10;0.10;;;;;;;;;;5114402;28;20201;-74
2021/05/18 13:45:31;;;;;;;0.10;0.10;;;;;;;;;;5118137;27;20212;-74
2021/05/18 13:47:58;;;;;;;0.10;0.10;;;;;;;;;;5117335;28;20205;-73
2021/05/18 13:50:25;;;;;;;0.00;0.00;;;;;;;;;;5113678;28;20493;-74
2021/05/18 13:52:50;;;;;;;0.10;0.10;;;;;;;;;;5118857;28;20198;-72
2021/05/18 13:55:17;;;;;;;0.10;0.10;;;;;;;;;;5119223;28;20502;-73
2021/05/18 13:57:43;;;;;;;0.10;0.10;;;;;;;;;;5119142;28;20485;-74
2021/05/18 14:00:13;;;;;;;0.10;0.10;;;;;;;;;;5122914;28;20215;-71
2021/05/18 14:02:41;;;;;;;0.10;0.10;;;;;;;;;;5111617;28;20208;-72
2021/05/18 14:05:08;;;;;;;0.10;0.10;;;;;;;;;;5120561;28;20227;-72
2021/05/18 14:10:31;;;;;;;0.03;0.03;;;;;;;;;;5070679;28;20190;-72
2021/05/18 14:12:57;;;;;;;0.20;0.20;;;;;;;;;;5118678;28;20231;-73
2021/05/18 14:15:22;;;;;;;0.07;0.07;;;;;;;;;;5117060;28;20203;-70
2021/05/18 14:17:49;;;;;;;0.10;0.10;;;;;;;;;;5118425;28;20218;-71
2021/05/18 14:20:15;;;;;;;0.10;0.10;;;;;;;;;;5110896;28;20211;-70
2021/05/18 14:22:41;;;;;;;0.10;0.10;;;;;;;;;;5112451;28;20205;-71
2021/05/18 14:25:08;;;;;;;0.10;0.10;;;;;;;;;;5120582;28;20388;-71
2021/05/18 14:27:34;;;;;;;0.10;0.10;;;;;;;;;;5122724;28;20199;-71
2021/05/18 14:30:00;;;;;;;0.10;0.10;;;;;;;;;;5114553;28;20370;-73
2021/05/18 14:32:26;;;;;;;0.10;0.10;;;;;;;;;;5113047;28;20240;-72
2021/05/18 14:34:53;;;;;;;0.10;0.10;;;;;;;;;;5118246;28;20203;-74
2021/05/18 14:37:19;;;;;;;0.10;0.10;;;;;;;;;;5117658;28;20259;-72
2021/05/18 14:39:56;;;;;;;0.10;0.10;;;;;;;;;;5115502;28;20230;-73
2021/05/18 14:45:06;;;;;;;0.10;0.10;;;;;;;;;;5121481;28;20224;-71
2021/05/18 14:47:38;;;;;;;0.10;0.10;;;;;;;;;;5117674;28;20505;-67
2021/05/18 14:55:34;;;;;;;0.10;0.10;;;;;;;;;;5123856;28;20233;-71
2021/05/18 14:58:00;;;;;;;0.10;0.10;;;;;;;;;;5121776;28;20493;-72
2021/05/18 15:00:27;;;;;;;0.00;0.00;;;;;;;;;;5134326;27;20205;-71
2021/05/18 15:02:53;;;;;;;0.10;0.10;;;;;;;;;;5134690;27;20256;-73
2021/05/18 15:05:21;;;;;;;0.10;0.10;;;;;;;;;;5130736;27;20227;-72
2021/05/18 15:07:49;;;;;;;0.10;0.10;;;;;;;;;;5128410;27;20403;-73
2021/05/18 15:10:15;;;;;;;0.10;0.10;;;;;;;;;;5127471;27;20206;-72
2021/05/18 15:12:41;;;;;;;0.10;0.10;;;;;;;;;;5128943;27;20207;-71
2021/05/18 15:15:08;;;;;;;0.10;0.10;;;;;;;;;;5128469;27;20210;-71
2021/05/18 15:17:34;;;;;;;0.07;0.07;;;;;;;;;;5126701;28;20513;-72
2021/05/18 15:20:00;;;;;;;0.10;0.10;;;;;;;;;;5121900;28;20419;-73
2021/05/18 15:22:30;;;;;;;0.10;0.10;;;;;;;;;;5124161;28;20226;-74
2021/05/18 15:24:56;;;;;;;0.10;0.10;;;;;;;;;;5119272;28;20236;-72
2021/05/18 15:27:21;;;;;;;0.07;0.07;;;;;;;;;;5126485;28;20200;-73
2021/05/18 15:29:48;;;;;;;0.10;0.10;;;;;;;;;;5126714;27;20217;-72
2021/05/18 15:32:14;;;;;;;0.10;0.10;;;;;;;;;;5127108;27;20250;-72
2021/05/18 15:34:40;;;;;;;0.10;0.10;;;;;;;;;;5126294;27;20203;-72
2021/05/18 15:37:06;;;;;;;0.10;0.10;;;;;;;;;;5117413;28;20223;-72
2021/05/18 15:39:35;;;;;;;0.10;0.10;;;;;;;;;;5125861;28;20395;-74
2021/05/18 15:42:01;;;;;;;0.10;0.10;;;;;;;;;;5125868;28;20411;-72
2021/05/18 15:44:27;;;;;;;0.10;0.10;;;;;;;;;;5125686;28;20225;-74
2021/05/18 15:46:53;;;;;;;0.10;0.10;;;;;;;;;;5125834;28;20206;-74
2021/05/18 15:49:19;;;;;;;0.10;0.10;;;;;;;;;;5124263;28;20447;-74
2021/05/18 15:51:45;;;;;;;0.10;0.10;;;;;;;;;;5126064;28;20244;-72
2021/05/18 15:54:11;;;;;;;0.10;0.10;;;;;;;;;;5121225;28;20206;-73
2021/05/18 15:56:39;;;;;;;0.10;0.10;;;;;;;;;;5128592;27;20217;-73
2021/05/18 15:59:05;;;;;;;0.10;0.10;;;;;;;;;;5122816;27;20238;-73
2021/05/18 16:01:31;;;;;;;0.00;0.00;;;;;;;;;;5133102;27;20194;-72
2021/05/18 16:03:57;;;;;;;0.00;0.00;;;;;;;;;;5125457;27;20214;-72
2021/05/18 16:06:23;;;;;;;0.10;0.10;;;;;;;;;;5120537;28;20257;-73
2021/05/18 16:09:00;;;;;;;0.10;0.10;;;;;;;;;;5121151;27;20216;-70
2021/05/18 16:11:26;;;;;;;0.10;0.10;;;;;;;;;;5118459;27;20513;-73
2021/05/18 16:13:53;;;;;;;0.00;0.00;;;;;;;;;;5124548;27;20384;-73
2021/05/18 16:16:19;;;;;;;0.10;0.10;;;;;;;;;;5115640;27;20502;-72
2021/05/18 16:18:45;;;;;;;0.10;0.10;;;;;;;;;;5115104;28;20270;-72
2021/05/18 16:21:11;;;;;;;0.10;0.10;;;;;;;;;;5121254;27;20216;-72
2021/05/18 16:23:39;;;;;;;0.10;0.10;;;;;;;;;;5118568;27;20275;-71
2021/05/18 16:26:05;;;;;;;0.10;0.10;;;;;;;;;;5126533;27;20217;-73
2021/05/18 16:28:31;;;;;;;0.10;0.10;;;;;;;;;;5125544;28;20474;-69
2021/05/18 16:30:58;;;;;;;0.10;0.10;;;;;;;;;;5124661;28;20225;-66
2021/05/18 16:33:25;;;;;;;0.10;0.10;;;;;;;;;;5122622;27;20304;-66
2021/05/18 16:35:50;;;;;;;0.10;0.10;;;;;;;;;;5118119;28;20398;-67
2021/05/18 16:38:16;;;;;;;0.10;0.10;;;;;;;;;;5124523;28;20201;-65
2021/05/18 16:40:42;;;;;;;0.10;0.10;;;;;;;;;;5124917;28;20264;-65
2021/05/18 16:43:08;;;;;;;0.10;0.10;;;;;;;;;;5124807;28;20206;-67
2021/05/18 16:45:34;;;;;;;0.10;0.10;;;;;;;;;;5125918;27;20237;-67
2021/05/18 16:48:01;;;;;;;0.10;0.10;;;;;;;;;;5124874;28;20224;-67
2021/05/18 16:50:27;;;;;;;0.10;0.10;;;;;;;;;;5124638;28;20248;-66
2021/05/18 16:52:52;;;;;;;0.10;0.10;;;;;;;;;;5118622;28;20204;-66
2021/05/18 16:55:18;;;;;;;0.10;0.10;;;;;;;;;;5126129;27;20199;-67
2021/05/18 16:57:44;;;;;;;0.10;0.10;;;;;;;;;;5122197;28;20203;-66
2021/05/18 17:00:12;;;;;;;0.10;0.10;;;;;;;;;;5124236;28;20238;-66
2021/05/18 17:02:38;;;;;;;0.10;0.10;;;;;;;;;;5129910;27;20486;-67
2021/05/18 17:05:07;;;;;;;0.10;0.10;;;;;;;;;;5124701;27;20269;-66
2021/05/18 17:07:33;;;;;;;0.10;0.10;;;;;;;;;;5123859;28;20247;-65
2021/05/18 17:09:59;;;;;;;0.10;0.10;;;;;;;;;;5124215;28;20206;-66
2021/05/18 17:12:24;;;;;;;0.00;0.00;;;;;;;;;;5121440;28;20202;-66
2021/05/18 17:14:51;;;;;;;0.10;0.10;;;;;;;;;;5113214;28;20202;-65
2021/05/18 17:17:17;;;;;;;0.10;0.10;;;;;;;;;;5117349;28;20197;-67
2021/05/18 17:19:43;;;;;;;0.10;0.10;;;;;;;;;;5119202;27;20275;-66
2021/05/18 17:22:10;;;;;;;0.10;0.10;;;;;;;;;;5116154;28;20371;-67
2021/05/18 17:24:36;;;;;;;0.10;0.10;;;;;;;;;;5115361;28;20225;-67
2021/05/18 17:27:02;;;;;;;0.10;0.10;;;;;;;;;;5118352;27;20374;-66
2021/05/18 17:29:28;;;;;;;0.10;0.10;;;;;;;;;;5122068;27;20294;-66
2021/05/18 17:31:53;;;;;;;0.00;0.00;;;;;;;;;;5120923;27;20305;-67
2021/05/18 17:34:20;;;;;;;0.10;0.10;;;;;;;;;;5120814;27;20274;-66
2021/05/18 17:36:47;;;;;;;0.10;0.10;;;;;;;;;;5118893;27;20398;-67
2021/05/18 17:39:14;;;;;;;0.10;0.10;;;;;;;;;;5121702;27;20270;-65
2021/05/18 17:41:40;;;;;;;0.00;0.00;;;;;;;;;;5119313;28;20203;-66
2021/05/18 17:44:06;;;;;;;0.10;0.10;;;;;;;;;;5119099;27;20240;-66
2021/05/18 17:46:32;;;;;;;0.10;0.10;;;;;;;;;;5119652;28;20199;-67
2021/05/18 17:48:58;;;;;;;0.10;0.10;;;;;;;;;;5118748;28;20205;-68
2021/05/18 17:51:24;;;;;;;0.10;0.10;;;;;;;;;;5118221;28;20220;-66
2021/05/18 17:53:50;;;;;;;0.10;0.10;;;;;;;;;;5114926;28;20265;-68
2021/05/18 17:56:17;;;;;;;0.10;0.10;;;;;;;;;;5113197;28;20206;-65
2021/05/18 17:58:42;;;;;;;0.10;0.10;;;;;;;;;;5122514;28;20421;-65
2021/05/18 18:01:08;;;;;;;0.10;0.10;;;;;;;;;;5115840;28;20206;-68
2021/05/18 18:03:34;;;;;;;0.10;0.10;;;;;;;;;;5117395;28;20202;-65
2021/05/18 18:06:00;;;;;;;0.10;0.10;;;;;;;;;;5120937;28;20218;-66
2021/05/18 18:08:26;;;;;;;0.10;0.10;;;;;;;;;;5112636;28;20210;-67
2021/05/18 18:10:52;;;;;;;0.10;0.10;;;;;;;;;;5116851;28;20396;-67
2021/05/18 18:13:19;;;;;;;0.10;0.10;;;;;;;;;;5120798;28;20280;-66
2021/05/18 18:15:45;;;;;;;0.10;0.10;;;;;;;;;;5112358;28;20198;-68
2021/05/18 18:18:11;;;;;;;0.10;0.10;;;;;;;;;;5111522;28;20577;-66
2021/05/18 18:20:37;;;;;;;0.10;0.10;;;;;;;;;;5121371;28;20272;-67
2021/05/18 18:23:03;;;;;;;0.10;0.10;;;;;;;;;;5111970;28;20961;-66
2021/05/18 18:25:29;;;;;;;0.10;0.10;;;;;;;;;;5116659;28;20288;-68
2021/05/18 18:27:55;;;;;;;0.10;0.10;;;;;;;;;;5112683;28;20213;-67
2021/05/18 18:30:23;;;;;;;0.10;0.10;;;;;;;;;;5113879;28;20369;-66
2021/05/18 18:32:48;;;;;;;0.00;0.00;;;;;;;;;;5113775;28;20227;-67
2021/05/18 18:35:14;;;;;;;0.10;0.10;;;;;;;;;;5125468;27;20301;-67
2021/05/18 18:37:42;;;;;;;0.10;0.10;;;;;;;;;;5118884;28;20220;-66
2021/05/18 18:40:09;;;;;;;0.10;0.10;;;;;;;;;;5120322;28;20213;-67
2021/05/18 18:42:35;;;;;;;0.10;0.10;;;;;;;;;;5115497;27;20202;-67
2021/05/18 18:45:01;;;;;;;0.10;0.10;;;;;;;;;;5120354;27;20263;-65